Nabq, Egypt
Current Conditions -  °F | °C
As of 6:00 PM on Friday 24 Oct 2014 (Local Time) from HESH Reporting Station
Clear Clear  
Wind Chill: 84°   Ceiling: Unl
Heat Index: 84°   Visibility: 6mi
Dew Point: 52°   Wind: 3mph
Humidity: 33%   Direction: 360°N
Pressure: 29.91"   Gusts: NA
Location:  28.07°N, 34.42°E
Report Text: HESH 241600Z 36003KT CAVOK 29/11 Q1013 NOSIG
Loading
Personal Weather Stations






























Interactive Weather Map New forecast layout! Learn more

10-Day Weather Forecast

Advertisements
Track Severe Weather on mobile